KHHF

Hemphill County Airport

Canadian, Texas, USA
METAR KHHF 231615Z AUTO 00000KT 3/4SM BR OVC002 01/01 A3017 RMK AO2 T00060005
Observed Flight Rules
Feb-23 @ 16:15 UTC (20 minutes ago) Instrument Flight Rules
Wind Visibility Clouds Conditions
Calm 3/4 miles
  • Overcast at 200' AGL
  • Mist
Temperatures Readings
Current 1°C / 34°F
Dewpoint 1°C / 34°F
Humidity 100%
Altimeter 30.17" Hg
Pressure 1022 hPa
Elevation 712
METAR KHHF 231615Z AUTO 00000KT 3/4SM BR OVC002 01/01 A3017 RMK AO2 T00060005
Observed Flight Rules
Feb-23 @ 16:15 UTC
(20 minutes ago)
LIFR
Wind Visibility
Calm 3/4 miles
Clouds
  • Overcast at 200' AGL
Conditions
  • Mist
Temperature Dewpoint
1°C / 34°F 1°C / 34°F
Humidity Altimeter Pressure
100% 30.17" Hg 1022 hPa